Ashland, Wisconsin
Current Conditions -  °F | °C
As of 1:53 AM on Saturday 20 Dec 2014 (Local Time) from KASX Reporting Station
Overcast Overcast  
Wind Chill: -6°   Ceiling: 2100
Heat Index: -3°   Visibility: 10mi
Dew Point: -6°   Wind: 5mph
Humidity: 84%   Direction: 190°S
Pressure: 30.19"   Gusts: NA
Location:  46.59°N, 90.89°W
Report Text: KASX 200753Z AUTO 19004KT 10SM OVC021 M03/M06 A3019 RMK AO2 SLP237 T10331056
Loading
Personal Weather Stations






























Interactive Weather Map New forecast layout! Learn more

10-Day Weather Forecast

Advertisements
Track Severe Weather on mobile